Terminal Aerodrome Forecast
Issued by NWS Miami, FL

Home | Current Version | Previous Version | Text Only | Print | Product List | Glossary On
Versions: 1 2 3 4 5 6 7 8 9 10 11 12 13 14 15 16 17 18 19 20 21 22 23 24
000
FTUS42 KMFL 170520
TAFAPF
TAF
KAPF 170520Z 1706/1806 06005KT P6SM SKC
     FM170800 VRB04KT 6SM BR BCFG FEW001
     FM171400 11010KT P6SM FEW025 SCT040
     FM180000 VRB06KT P6SM SKC=

USA.gov is the U.S. government's official web portal to all federal, state and local government web resources and services.